Time;durP1;ratioP1;P1;durP2;ratioP2;P2;SDS_P1;SDS_P2;PMS_P1;PMS_P2;Temp;Humidity;BMP_temperature;BMP_pressure;BME280_temperature;BME280_humidity;BME280_pressure;Samples;Min_cycle;Max_cycle;Signal;HPM_P1;HPM_P2
2022/04/16 00:02:05;;;;;;;8.77;4.33;;;6.90;99.90;;;;;;4917121;29;20193;-80
2022/04/16 00:04:33;;;;;;;8.37;4.13;;;6.90;99.90;;;;;;4910366;29;20669;-81
2022/04/16 00:06:59;;;;;;;9.50;4.27;;;6.90;99.90;;;;;;4899488;29;20222;-80
2022/04/16 00:09:24;;;;;;;8.13;4.07;;;6.90;99.90;;;;;;4898061;29;20183;-81
2022/04/16 00:11:50;;;;;;;6.50;4.37;;;6.90;99.90;;;;;;4899169;29;20186;-81
2022/04/16 00:14:17;;;;;;;6.60;3.90;;;6.90;99.90;;;;;;4897696;29;20199;-81
2022/04/16 00:16:44;;;;;;;9.30;3.93;;;6.80;99.90;;;;;;4899146;29;20238;-81
2022/04/16 00:19:11;;;;;;;8.20;3.43;;;6.80;99.90;;;;;;4897625;29;20629;-80
2022/04/16 00:21:41;;;;;;;7.50;3.00;;;6.80;99.90;;;;;;4897673;29;20194;-81
2022/04/16 00:24:07;;;;;;;7.03;3.43;;;6.80;99.90;;;;;;4899277;29;20191;-80
2022/04/16 00:26:38;;;;;;;6.87;3.37;;;6.80;99.90;;;;;;4899553;29;20223;-80
2022/04/16 00:29:04;;;;;;;7.37;3.53;;;6.70;99.90;;;;;;4901842;29;20187;-82
2022/04/16 00:31:30;;;;;;;4.80;3.43;;;6.70;99.90;;;;;;4901734;29;20179;-81
2022/04/16 00:33:56;;;;;;;5.90;3.00;;;6.60;99.90;;;;;;4903185;29;20187;-82
2022/04/16 00:36:22;;;;;;;7.30;3.37;;;6.60;99.90;;;;;;4921626;29;20173;-82
2022/04/16 00:38:47;;;;;;;5.73;3.17;;;6.60;99.90;;;;;;4921793;29;20170;-80
2022/04/16 00:41:13;;;;;;;5.47;3.10;;;6.60;99.90;;;;;;4920683;29;20214;-80
2022/04/16 00:43:39;;;;;;;7.00;2.93;;;6.60;99.90;;;;;;4921978;29;20221;-80
2022/04/16 00:46:05;;;;;;;6.30;2.50;;;6.60;99.90;;;;;;4921738;29;20250;-80
2022/04/16 00:48:31;;;;;;;5.27;2.63;;;6.50;99.90;;;;;;4921568;29;20246;-81
2022/04/16 00:50:57;;;;;;;6.37;2.53;;;6.50;99.90;;;;;;4920230;29;20190;-80
2022/04/16 00:53:25;;;;;;;4.67;2.40;;;6.40;99.90;;;;;;4920373;29;20194;-81
2022/04/16 00:55:51;;;;;;;6.63;2.70;;;6.20;99.90;;;;;;4921523;29;20273;-80
2022/04/16 00:58:17;;;;;;;3.53;2.30;;;6.20;99.90;;;;;;4921441;29;20206;-80
2022/04/16 01:00:43;;;;;;;3.70;2.40;;;6.10;99.90;;;;;;4921496;29;20171;-80
2022/04/16 01:03:09;;;;;;;5.10;2.70;;;6.10;99.90;;;;;;4921141;29;20684;-81
2022/04/16 01:05:37;;;;;;;5.30;2.63;;;6.10;99.90;;;;;;4921243;29;20540;-81
2022/04/16 01:08:04;;;;;;;8.63;2.47;;;6.00;99.90;;;;;;4919998;29;20179;-81
2022/04/16 01:10:31;;;;;;;3.87;2.43;;;5.90;99.90;;;;;;4920636;29;20194;-81
2022/04/16 01:13:00;;;;;;;5.57;2.40;;;5.80;99.90;;;;;;4919960;29;20525;-80
2022/04/16 01:15:29;;;;;;;4.77;2.27;;;5.60;99.90;;;;;;4921087;29;20609;-81
2022/04/16 01:17:55;;;;;;;3.63;2.20;;;5.70;99.90;;;;;;4919717;29;20206;-80
2022/04/16 01:20:22;;;;;;;3.07;2.20;;;5.60;99.90;;;;;;4920928;29;20174;-80
2022/04/16 01:22:50;;;;;;;4.60;2.27;;;5.50;99.90;;;;;;4919818;29;20186;-80
2022/04/16 01:25:16;;;;;;;2.63;2.10;;;5.40;99.90;;;;;;4919862;29;20644;-80
2022/04/16 01:27:48;;;;;;;7.50;3.13;;;5.40;99.90;;;;;;4920851;29;20179;-80
2022/04/16 01:30:16;;;;;;;5.23;2.17;;;5.30;99.90;;;;;;4919619;29;20188;-80
2022/04/16 01:32:42;;;;;;;3.77;2.03;;;5.20;99.90;;;;;;4920778;29;20186;-80
2022/04/16 01:35:09;;;;;;;4.10;2.10;;;5.10;99.90;;;;;;4920728;29;20191;-81
2022/04/16 01:37:35;;;;;;;5.00;2.00;;;5.10;99.90;;;;;;4920344;29;20206;-80
2022/04/16 01:40:03;;;;;;;3.77;2.20;;;5.00;99.90;;;;;;4920008;29;20174;-81
2022/04/16 01:42:32;;;;;;;4.17;2.00;;;5.00;99.90;;;;;;4920524;29;20214;-80
2022/04/16 01:45:06;;;;;;;3.33;1.97;;;5.00;99.90;;;;;;4919357;29;20278;-79
2022/04/16 01:47:36;;;;;;;5.40;2.40;;;5.00;99.90;;;;;;4920858;29;20167;-81
2022/04/16 01:50:03;;;;;;;4.20;1.87;;;4.80;99.90;;;;;;4920510;29;20208;-80
2022/04/16 01:52:29;;;;;;;2.53;1.90;;;4.90;99.90;;;;;;4919554;29;20189;-79
2022/04/16 01:54:55;;;;;;;3.43;2.10;;;4.80;99.90;;;;;;4919260;29;20183;-80
2022/04/16 01:57:20;;;;;;;5.23;2.33;;;4.70;99.90;;;;;;4920300;29;20627;-81
2022/04/16 01:59:48;;;;;;;3.23;2.37;;;4.70;99.90;;;;;;4920526;29;20222;-81
2022/04/16 02:02:17;;;;;;;4.30;1.90;;;4.70;99.90;;;;;;4920249;29;20516;-81
2022/04/16 02:04:43;;;;;;;2.23;1.77;;;4.60;99.90;;;;;;4920015;29;20258;-81
2022/04/16 02:07:09;;;;;;;5.10;2.20;;;4.60;99.90;;;;;;4920345;29;20189;-79
2022/04/16 02:09:35;;;;;;;4.97;2.50;;;4.60;99.90;;;;;;4920189;29;20171;-81
2022/04/16 02:12:02;;;;;;;3.83;2.20;;;4.60;99.90;;;;;;4920086;29;20178;-81
2022/04/16 02:14:28;;;;;;;5.33;2.17;;;4.60;99.90;;;;;;4919073;29;20186;-81
2022/04/16 02:16:54;;;;;;;4.70;2.40;;;4.60;99.90;;;;;;4918903;29;20214;-81
2022/04/16 02:19:20;;;;;;;3.10;2.00;;;4.60;99.90;;;;;;4919801;29;20174;-81
2022/04/16 02:21:46;;;;;;;2.80;1.60;;;4.60;99.90;;;;;;4918729;29;20182;-81
2022/04/16 02:24:13;;;;;;;4.10;2.07;;;4.60;99.90;;;;;;4919806;29;20637;-80
2022/04/16 02:26:40;;;;;;;4.20;1.87;;;4.50;99.90;;;;;;4918634;29;20310;-82
2022/04/16 02:29:08;;;;;;;2.83;2.00;;;4.40;99.90;;;;;;4918894;29;20274;-79
2022/04/16 02:31:34;;;;;;;4.63;2.47;;;4.40;99.90;;;;;;4919882;29;20198;-81
2022/04/16 02:34:00;;;;;;;5.10;2.50;;;4.30;99.90;;;;;;4918410;29;20182;-81
2022/04/16 02:36:25;;;;;;;4.33;2.33;;;4.30;99.90;;;;;;4918231;29;20621;-81
2022/04/16 02:38:56;;;;;;;4.57;2.07;;;4.30;99.90;;;;;;4918366;29;20215;-81
2022/04/16 02:41:22;;;;;;;3.37;2.03;;;4.20;99.90;;;;;;4919647;29;20250;-81
2022/04/16 02:43:47;;;;;;;5.97;2.50;;;4.10;99.90;;;;;;4918523;29;20277;-81
2022/04/16 02:48:58;;;;;;;4.13;1.80;;;4.10;99.90;;;;;;4919452;29;20219;-81
2022/04/16 02:51:24;;;;;;;3.50;2.13;;;4.10;99.90;;;;;;4917561;29;20191;-81
2022/04/16 02:53:50;;;;;;;2.67;2.17;;;4.10;99.90;;;;;;4919577;29;20257;-82
2022/04/16 02:56:17;;;;;;;5.10;2.20;;;4.10;99.90;;;;;;4918311;29;20298;-82
2022/04/16 02:58:43;;;;;;;3.77;2.13;;;4.00;99.90;;;;;;4918139;29;20266;-81
2022/04/16 03:01:08;;;;;;;5.13;2.30;;;3.90;99.90;;;;;;4919305;29;20174;-82
2022/04/16 03:03:34;;;;;;;3.73;2.20;;;3.90;99.90;;;;;;4919010;29;20664;-82
2022/04/16 03:06:00;;;;;;;3.67;2.23;;;3.90;99.90;;;;;;4918880;29;20225;-81
2022/04/16 03:08:26;;;;;;;2.57;1.87;;;4.00;99.90;;;;;;4919047;29;20197;-82
2022/04/16 03:10:52;;;;;;;4.30;2.10;;;4.00;99.90;;;;;;4918044;29;20189;-82
2022/04/16 03:13:19;;;;;;;4.37;1.77;;;3.90;99.90;;;;;;4917840;29;20655;-82
2022/04/16 03:18:30;;;;;;;4.40;2.20;;;3.90;99.90;;;;;;4918983;29;20217;-82
2022/04/16 03:20:58;;;;;;;3.50;2.20;;;3.80;99.90;;;;;;4918849;29;20698;-82
2022/04/16 03:23:24;;;;;;;2.83;1.83;;;3.70;99.90;;;;;;4918926;29;20210;-82
2022/04/16 03:25:50;;;;;;;4.13;2.20;;;3.70;99.90;;;;;;4917716;29;20628;-82
2022/04/16 03:28:16;;;;;;;3.20;2.07;;;3.70;99.90;;;;;;4917540;29;20182;-81
2022/04/16 03:30:42;;;;;;;4.47;2.67;;;3.60;99.90;;;;;;4918854;29;20185;-82
2022/04/16 03:33:08;;;;;;;3.97;2.10;;;3.60;99.90;;;;;;4918647;29;20182;-82
2022/04/16 03:35:35;;;;;;;3.10;1.93;;;3.50;99.90;;;;;;4917203;29;20261;-82
2022/04/16 03:38:01;;;;;;;4.50;2.03;;;3.50;99.90;;;;;;4918642;29;20258;-82
2022/04/16 03:40:27;;;;;;;2.93;2.10;;;3.40;99.90;;;;;;4918710;29;20168;-82
2022/04/16 03:42:58;;;;;;;5.43;2.67;;;3.40;99.90;;;;;;4917030;29;20696;-81
2022/04/16 03:45:29;;;;;;;4.73;2.07;;;3.40;99.90;;;;;;4918596;29;20159;-81
2022/04/16 03:47:57;;;;;;;4.03;2.13;;;3.40;99.90;;;;;;4917181;29;20182;-81
2022/04/16 03:50:24;;;;;;;3.50;2.13;;;3.40;99.90;;;;;;4917022;29;20564;-82
2022/04/16 03:52:52;;;;;;;6.07;2.47;;;3.30;99.90;;;;;;4917152;29;20179;-82
2022/04/16 04:00:50;;;;;;;4.13;2.30;;;3.40;99.90;;;;;;4918658;29;20178;-82
2022/04/16 04:03:16;;;;;;;5.80;2.10;;;3.30;99.90;;;;;;4916530;29;20253;-82
2022/04/16 04:05:45;;;;;;;7.90;2.30;;;3.30;99.90;;;;;;4901418;29;20194;-82
2022/04/16 04:08:11;;;;;;;2.90;2.47;;;3.20;99.90;;;;;;4899234;29;20175;-82
2022/04/16 04:10:37;;;;;;;7.80;2.37;;;3.20;99.90;;;;;;4899350;29;20182;-82
2022/04/16 04:13:03;;;;;;;5.33;2.40;;;3.20;99.90;;;;;;4898195;29;20175;-82
2022/04/16 04:15:29;;;;;;;5.60;2.30;;;3.20;99.90;;;;;;4898100;29;20274;-82
2022/04/16 04:17:59;;;;;;;3.13;1.93;;;3.20;99.90;;;;;;4897876;29;20725;-82
2022/04/16 04:20:26;;;;;;;4.00;2.10;;;3.20;99.90;;;;;;4899171;29;20642;-82
2022/04/16 04:22:52;;;;;;;2.20;1.97;;;3.20;99.90;;;;;;4897991;29;20186;-82
2022/04/16 04:25:18;;;;;;;4.10;1.90;;;3.10;99.90;;;;;;4899160;29;20286;-81
2022/04/16 04:27:43;;;;;;;4.00;2.00;;;3.20;99.90;;;;;;4898017;29;20636;-82
2022/04/16 04:30:10;;;;;;;2.87;2.17;;;3.30;99.90;;;;;;4897898;29;20172;-82
2022/04/16 04:32:36;;;;;;;4.30;2.07;;;3.20;99.90;;;;;;4897856;29;20627;-82
2022/04/16 04:35:03;;;;;;;2.77;1.97;;;3.30;99.90;;;;;;4907696;29;20185;-81
2022/04/16 04:37:29;;;;;;;4.97;2.10;;;3.30;99.90;;;;;;4917912;29;20214;-82
2022/04/16 04:39:55;;;;;;;3.70;1.87;;;3.20;99.90;;;;;;4918026;29;20174;-81
2022/04/16 04:42:25;;;;;;;5.00;2.50;;;3.20;99.90;;;;;;4916842;29;20183;-82
2022/04/16 04:44:50;;;;;;;9.80;2.03;;;3.10;99.90;;;;;;4918072;29;20178;-82
2022/04/16 04:47:16;;;;;;;5.30;2.23;;;3.10;99.90;;;;;;4916698;29;20563;-81
2022/04/16 04:49:42;;;;;;;3.90;2.30;;;3.10;99.90;;;;;;4916686;29;20182;-81
2022/04/16 04:52:08;;;;;;;3.10;2.07;;;3.00;99.90;;;;;;4916268;29;20179;-81
2022/04/16 04:54:33;;;;;;;4.00;2.30;;;3.00;99.90;;;;;;4916619;29;20183;-81
2022/04/16 04:56:59;;;;;;;5.67;1.90;;;3.00;99.90;;;;;;4916667;29;20222;-81
2022/04/16 04:59:25;;;;;;;5.90;2.20;;;3.00;99.90;;;;;;4916698;29;20218;-81
2022/04/16 05:01:51;;;;;;;6.03;2.10;;;3.10;99.90;;;;;;4916595;29;20179;-82
2022/04/16 05:04:17;;;;;;;4.80;2.10;;;3.10;99.90;;;;;;4916439;29;20676;-82
2022/04/16 05:06:42;;;;;;;3.53;2.13;;;3.20;99.90;;;;;;4916342;29;20374;-81
2022/04/16 05:09:11;;;;;;;5.70;1.93;;;3.20;99.90;;;;;;4917609;29;20864;-81
2022/04/16 05:11:37;;;;;;;4.57;2.00;;;3.30;99.90;;;;;;4916351;29;20179;-81
2022/04/16 05:14:03;;;;;;;6.07;2.30;;;3.40;99.90;;;;;;4918992;29;20179;-81
2022/04/16 05:16:28;;;;;;;3.67;1.97;;;3.40;99.90;;;;;;4920047;29;20610;-81
2022/04/16 05:18:54;;;;;;;5.37;2.00;;;3.30;99.90;;;;;;4921136;29;20174;-82
2022/04/16 05:21:20;;;;;;;5.73;2.20;;;3.30;99.90;;;;;;4918907;29;20183;-81
2022/04/16 05:23:45;;;;;;;4.23;2.00;;;3.40;99.90;;;;;;4921224;29;20190;-81
2022/04/16 05:26:12;;;;;;;5.43;2.00;;;3.40;99.90;;;;;;4919866;29;20621;-82
2022/04/16 05:28:38;;;;;;;3.97;1.73;;;3.40;99.90;;;;;;4920927;29;20179;-80
2022/04/16 05:31:05;;;;;;;4.27;2.10;;;3.40;99.90;;;;;;4920161;29;20184;-82
2022/04/16 05:36:16;;;;;;;3.63;1.77;;;3.60;99.90;;;;;;4901835;29;20210;-82
2022/04/16 05:38:42;;;;;;;5.57;2.07;;;3.60;99.90;;;;;;4916419;29;20294;-81
2022/04/16 05:41:08;;;;;;;2.87;1.83;;;3.60;99.90;;;;;;4916487;29;20187;-82
2022/04/16 05:43:34;;;;;;;4.83;2.10;;;3.70;99.90;;;;;;4900586;29;20187;-82
2022/04/16 05:45:59;;;;;;;4.97;2.10;;;3.70;99.90;;;;;;4901824;29;20254;-81
2022/04/16 05:48:25;;;;;;;4.90;2.30;;;3.80;99.90;;;;;;4901608;29;20171;-82
2022/04/16 05:50:51;;;;;;;5.03;1.90;;;3.80;99.90;;;;;;4901497;29;20176;-82
2022/04/16 05:53:18;;;;;;;4.20;2.10;;;3.80;99.90;;;;;;4901409;29;20319;-81
2022/04/16 05:55:48;;;;;;;4.60;2.27;;;3.90;99.90;;;;;;4901328;29;20537;-82
2022/04/16 05:58:15;;;;;;;4.40;2.10;;;3.80;99.90;;;;;;4901450;29;20238;-82
2022/04/16 06:00:41;;;;;;;3.93;1.83;;;3.90;99.90;;;;;;4901194;29;20174;-81
2022/04/16 06:03:07;;;;;;;4.97;2.17;;;4.00;99.90;;;;;;4901072;29;20239;-80
2022/04/16 06:05:33;;;;;;;3.97;1.67;;;4.00;99.90;;;;;;4915437;29;20190;-81
2022/04/16 06:07:59;;;;;;;4.10;1.93;;;4.10;99.90;;;;;;4919071;29;20300;-82
2022/04/16 06:10:26;;;;;;;8.10;2.27;;;4.10;99.90;;;;;;4914245;29;20186;-82
2022/04/16 06:12:51;;;;;;;4.30;1.67;;;4.20;99.90;;;;;;4914008;29;20179;-81
2022/04/16 06:15:18;;;;;;;3.33;1.70;;;4.30;99.90;;;;;;4918675;29;20341;-81
2022/04/16 06:17:43;;;;;;;3.90;1.60;;;4.30;99.90;;;;;;4918393;29;20800;-81
2022/04/16 06:20:10;;;;;;;4.20;1.93;;;4.30;99.90;;;;;;4919876;29;20213;-82
2022/04/16 06:22:37;;;;;;;4.20;1.87;;;4.40;99.90;;;;;;4918439;29;20281;-82
2022/04/16 06:25:03;;;;;;;5.77;1.93;;;4.40;99.90;;;;;;4917980;29;20179;-82
2022/04/16 06:27:28;;;;;;;4.53;1.77;;;4.60;99.90;;;;;;4919763;29;20193;-81
2022/04/16 06:29:54;;;;;;;5.63;1.90;;;4.70;99.90;;;;;;4918433;29;20181;-81
2022/04/16 06:32:20;;;;;;;4.67;1.67;;;4.80;99.90;;;;;;4918451;29;20205;-82
2022/04/16 06:34:46;;;;;;;2.30;1.43;;;4.90;99.90;;;;;;4919730;29;20189;-82
2022/04/16 06:37:11;;;;;;;2.77;1.53;;;5.00;99.90;;;;;;4919480;29;20238;-82
2022/04/16 06:39:37;;;;;;;4.87;1.60;;;5.20;99.90;;;;;;4911196;29;20191;-82
2022/04/16 06:42:03;;;;;;;3.87;1.50;;;5.20;99.90;;;;;;4900799;29;20215;-81
2022/04/16 06:44:31;;;;;;;4.97;1.40;;;5.30;99.90;;;;;;4900563;29;20623;-81
2022/04/16 06:46:58;;;;;;;3.83;1.30;;;5.40;99.90;;;;;;4900526;29;20175;-82
2022/04/16 06:49:25;;;;;;;3.00;1.10;;;5.50;99.90;;;;;;4899369;29;20193;-81
2022/04/16 06:51:52;;;;;;;3.87;1.20;;;5.50;99.90;;;;;;4900333;29;20171;-81
2022/04/16 06:54:18;;;;;;;2.63;1.30;;;5.70;99.90;;;;;;4900611;29;20179;-81
2022/04/16 06:56:44;;;;;;;4.30;1.20;;;5.80;99.90;;;;;;4900564;29;20304;-81
2022/04/16 06:59:10;;;;;;;4.27;1.37;;;5.90;99.90;;;;;;4900371;29;20569;-80
2022/04/16 07:01:35;;;;;;;3.87;1.20;;;6.00;99.90;;;;;;4900260;29;20226;-83
2022/04/16 07:04:01;;;;;;;1.50;1.00;;;6.00;99.90;;;;;;4901010;29;20551;-80
2022/04/16 07:06:27;;;;;;;1.73;1.00;;;6.10;99.90;;;;;;4914614;29;20519;-81
2022/04/16 07:08:52;;;;;;;1.43;0.90;;;6.20;99.90;;;;;;4906334;29;20208;-80
2022/04/16 07:11:18;;;;;;;2.43;1.00;;;6.40;99.90;;;;;;4898831;29;20175;-81
2022/04/16 07:13:44;;;;;;;4.40;1.00;;;6.40;99.90;;;;;;4898749;29;20190;-81
2022/04/16 07:16:09;;;;;;;3.40;1.23;;;6.50;99.90;;;;;;4898387;29;20255;-81
2022/04/16 07:18:35;;;;;;;2.43;0.97;;;6.50;99.90;;;;;;4899558;29;20213;-81
2022/04/16 07:21:01;;;;;;;2.47;1.13;;;6.60;99.90;;;;;;4899395;29;20190;-83
2022/04/16 07:23:27;;;;;;;2.03;1.10;;;6.70;99.90;;;;;;4897604;29;20219;-81
2022/04/16 07:25:53;;;;;;;3.47;1.20;;;6.80;99.90;;;;;;4899193;29;20185;-82
2022/04/16 07:28:21;;;;;;;2.20;0.97;;;6.90;99.90;;;;;;4898457;29;20183;-81
2022/04/16 07:30:51;;;;;;;1.87;0.80;;;7.00;99.90;;;;;;4898654;29;20304;-81
2022/04/16 07:33:17;;;;;;;2.53;1.10;;;7.10;99.90;;;;;;4899864;29;20186;-81
2022/04/16 07:35:43;;;;;;;3.03;1.10;;;7.10;99.90;;;;;;4915105;29;20250;-81
2022/04/16 07:38:09;;;;;;;2.60;1.33;;;7.00;99.90;;;;;;4917328;29;20656;-81
2022/04/16 07:40:35;;;;;;;2.77;0.90;;;7.10;99.90;;;;;;4918649;29;20661;-80
2022/04/16 07:43:01;;;;;;;3.03;1.00;;;7.10;99.90;;;;;;4918601;29;20641;-81
2022/04/16 07:45:28;;;;;;;1.50;0.90;;;7.10;99.90;;;;;;4917346;29;20261;-79
2022/04/16 07:47:54;;;;;;;5.40;0.90;;;7.20;99.90;;;;;;4918756;29;20205;-81
2022/04/16 07:50:20;;;;;;;3.53;0.90;;;7.20;99.90;;;;;;4918365;29;20610;-82
2022/04/16 07:52:47;;;;;;;2.87;0.90;;;7.20;99.90;;;;;;4918540;29;20181;-81
2022/04/16 07:55:13;;;;;;;1.83;0.83;;;7.30;99.90;;;;;;4918544;29;20178;-81
2022/04/16 07:57:39;;;;;;;3.47;1.10;;;7.30;99.90;;;;;;4918089;29;20199;-81
2022/04/16 08:00:06;;;;;;;1.03;0.70;;;7.30;99.90;;;;;;4917185;29;20190;-82
2022/04/16 08:02:32;;;;;;;2.30;1.00;;;7.40;99.90;;;;;;4917068;29;20187;-84
2022/04/16 08:04:58;;;;;;;1.43;0.83;;;7.50;99.90;;;;;;4916856;29;20234;-81
2022/04/16 08:07:24;;;;;;;2.13;1.00;;;7.70;99.90;;;;;;4918212;29;20537;-81
2022/04/16 08:09:50;;;;;;;1.43;0.87;;;7.90;99.90;;;;;;4916911;29;20182;-82
2022/04/16 08:12:17;;;;;;;3.37;1.13;;;7.80;99.90;;;;;;4918141;29;20614;-82
2022/04/16 08:14:43;;;;;;;1.87;0.90;;;7.70;99.90;;;;;;4918343;29;20200;-81
2022/04/16 08:17:08;;;;;;;2.20;0.80;;;7.80;99.90;;;;;;4917909;29;20708;-81
2022/04/16 08:19:35;;;;;;;1.73;0.90;;;7.80;99.90;;;;;;4917935;29;20509;-81
2022/04/16 08:22:00;;;;;;;3.33;0.90;;;7.90;99.90;;;;;;4917760;29;20174;-81
2022/04/16 08:26:52;;;;;;;2.40;1.00;;;8.20;99.90;;;;;;4907706;29;20176;-79
2022/04/16 08:29:19;;;;;;;3.07;0.90;;;8.30;99.90;;;;;;4898342;29;20195;-80
2022/04/16 08:31:45;;;;;;;2.97;1.03;;;8.30;99.90;;;;;;4906347;29;20188;-79
2022/04/16 08:34:10;;;;;;;1.97;1.00;;;8.40;99.90;;;;;;4912734;29;20210;-81
2022/04/16 08:36:36;;;;;;;2.13;0.97;;;8.60;99.90;;;;;;4909254;29;20186;-80
2022/04/16 08:39:04;;;;;;;4.93;0.90;;;8.70;99.90;;;;;;4911914;29;20194;-80
2022/04/16 08:41:31;;;;;;;1.70;0.80;;;8.70;99.90;;;;;;4901902;29;20167;-80
2022/04/16 08:43:57;;;;;;;3.10;1.07;;;8.80;99.90;;;;;;4910770;29;20187;-81
2022/04/16 08:46:26;;;;;;;1.73;0.80;;;8.90;99.90;;;;;;4907239;29;20179;-81
2022/04/16 08:48:54;;;;;;;2.53;0.70;;;9.10;99.90;;;;;;4915308;29;20264;-82
2022/04/16 08:51:20;;;;;;;1.07;0.70;;;9.10;99.90;;;;;;4918567;29;20225;-81
2022/04/16 08:53:46;;;;;;;3.07;1.03;;;9.10;99.90;;;;;;4907835;29;20182;-81
2022/04/16 08:56:11;;;;;;;2.20;0.67;;;9.00;99.90;;;;;;4916179;29;20189;-81
2022/04/16 08:58:38;;;;;;;1.10;0.67;;;9.10;99.90;;;;;;4908222;29;20243;-81
2022/04/16 09:01:05;;;;;;;1.73;0.70;;;9.30;99.90;;;;;;4914775;29;20185;-83
2022/04/16 09:03:36;;;;;;;3.40;0.90;;;9.40;99.90;;;;;;4902205;29;20313;-81
2022/04/16 09:06:03;;;;;;;2.30;0.63;;;9.50;99.90;;;;;;4911739;29;20574;-82
2022/04/16 09:08:30;;;;;;;1.63;0.90;;;9.40;99.90;;;;;;4910759;29;20598;-80
2022/04/16 09:11:12;;;;;;;4.30;0.57;;;9.50;99.70;;;;;;4904725;29;20645;-81
2022/04/16 09:13:50;;;;;;;2.40;0.80;;;9.50;97.60;;;;;;4905009;29;20273;-82
2022/04/16 09:16:17;;;;;;;1.57;0.70;;;9.70;98.80;;;;;;4920875;29;20178;-81
2022/04/16 09:18:51;;;;;;;1.90;0.70;;;9.60;99.80;;;;;;4907963;29;20215;-83
2022/04/16 09:21:18;;;;;;;1.90;0.67;;;9.60;99.10;;;;;;4916056;29;20218;-82
2022/04/16 09:23:50;;;;;;;1.90;0.60;;;9.60;99.80;;;;;;4906824;29;20214;-81
2022/04/16 09:26:32;;;;;;;1.67;0.60;;;9.70;99.30;;;;;;4921100;29;20237;-82
2022/04/16 09:29:09;;;;;;;2.40;0.90;;;9.70;98.70;;;;;;4904449;29;20666;-82
2022/04/16 09:31:40;;;;;;;2.83;0.80;;;9.70;99.50;;;;;;4914117;29;20317;-80
2022/04/16 09:34:26;;;;;;;2.33;0.80;;;9.80;99.90;;;;;;4908339;29;20737;-80
2022/04/16 09:36:54;;;;;;;1.17;0.70;;;9.80;99.90;;;;;;4915012;29;20564;-80
2022/04/16 09:39:25;;;;;;;2.30;0.90;;;10.00;99.90;;;;;;4910096;29;20229;-80
2022/04/16 09:41:51;;;;;;;1.70;0.70;;;9.90;98.90;;;;;;4920402;29;20186;-80
2022/04/16 09:44:18;;;;;;;2.67;0.70;;;10.00;98.30;;;;;;4909602;29;20283;-82
2022/04/16 09:46:48;;;;;;;2.37;0.97;;;10.10;99.50;;;;;;4912609;29;20277;-81
2022/04/16 09:49:15;;;;;;;1.63;0.60;;;10.30;98.50;;;;;;4914732;29;20186;-81
2022/04/16 09:51:43;;;;;;;1.73;0.70;;;10.10;99.90;;;;;;4915333;29;20183;-81
2022/04/16 09:54:10;;;;;;;2.10;0.80;;;10.20;99.50;;;;;;4909801;29;20182;-81
2022/04/16 09:56:37;;;;;;;2.80;0.70;;;10.40;99.00;;;;;;4908028;29;20191;-82
2022/04/16 09:59:05;;;;;;;1.50;0.80;;;10.40;97.90;;;;;;4915949;29;20245;-80
2022/04/16 10:01:32;;;;;;;2.27;0.80;;;10.70;97.20;;;;;;4903259;29;20479;-81
2022/04/16 10:04:02;;;;;;;0.70;0.70;;;10.40;96.90;;;;;;4920109;29;20269;-81
2022/04/16 10:06:31;;;;;;;1.17;0.60;;;10.10;98.10;;;;;;4909110;29;20179;-81
2022/04/16 10:09:13;;;;;;;1.50;0.73;;;10.20;96.90;;;;;;4914393;29;20186;-82
2022/04/16 10:12:59;;;;;;;1.40;0.80;;;10.40;97.20;;;;;;4905609;29;20218;-81
2022/04/16 10:14:33;;;;;;;1.77;0.90;;;10.60;97.70;;;;;;4909115;29;20183;-82
2022/04/16 10:17:14;;;;;;;3.00;0.97;;;10.80;97.70;;;;;;4915820;29;20239;-81
2022/04/16 10:19:47;;;;;;;1.10;0.80;;;10.90;98.80;;;;;;4905656;29;20182;-81
2022/04/16 10:22:27;;;;;;;1.10;0.63;;;11.10;95.90;;;;;;4909598;29;20180;-81
2022/04/16 10:24:56;;;;;;;1.60;0.80;;;11.20;95.20;;;;;;4914925;29;20182;-81
2022/04/16 10:27:25;;;;;;;3.25;0.75;;;11.30;94.30;;;;;;4915984;29;20234;-80
2022/04/16 10:29:51;;;;;;;1.52;0.95;;;11.20;93.90;;;;;;4906584;29;20269;-81
2022/04/16 10:32:17;;;;;;;1.20;0.63;;;11.30;95.70;;;;;;4917662;29;20253;-81
2022/04/16 10:34:44;;;;;;;1.83;0.70;;;11.20;93.40;;;;;;4918433;29;20210;-81
2022/04/16 10:37:23;;;;;;;0.97;0.63;;;11.20;92.10;;;;;;4918349;29;20218;-80
2022/04/16 10:39:53;;;;;;;2.08;0.95;;;11.10;92.60;;;;;;4915750;29;20289;-80
2022/04/16 10:42:32;;;;;;;1.35;0.80;;;11.20;93.10;;;;;;4907676;29;20187;-81
2022/04/16 10:45:11;;;;;;;1.25;0.60;;;11.30;91.50;;;;;;4899398;29;20183;-81
2022/04/16 10:47:41;;;;;;;2.13;0.70;;;11.40;91.60;;;;;;4899334;29;20187;-80
2022/04/16 10:50:20;;;;;;;2.17;0.70;;;11.50;93.40;;;;;;4915192;29;20190;-83
2022/04/16 10:52:57;;;;;;;1.00;0.80;;;11.70;93.90;;;;;;4919040;29;20159;-82
2022/04/16 10:55:30;;;;;;;1.92;0.52;;;11.80;94.40;;;;;;4908603;29;20187;-80
2022/04/16 10:58:06;;;;;;;1.05;0.50;;;11.90;93.40;;;;;;4899016;29;20247;-80
2022/04/16 11:00:44;;;;;;;2.88;0.70;;;11.90;91.10;;;;;;4905123;29;20211;-81
2022/04/16 11:03:18;;;;;;;1.25;0.60;;;11.90;88.40;;;;;;4915912;29;20268;-81
2022/04/16 11:05:45;;;;;;;1.45;0.55;;;12.10;90.70;;;;;;4917084;29;20206;-81
2022/04/16 11:08:12;;;;;;;1.88;0.57;;;12.10;89.10;;;;;;4902145;29;20245;-81
2022/04/16 11:10:40;;;;;;;1.17;0.60;;;12.20;87.80;;;;;;4898406;29;20179;-81
2022/04/16 11:13:07;;;;;;;1.33;0.60;;;12.20;89.60;;;;;;4899832;29;20174;-81
2022/04/16 11:15:33;;;;;;;2.20;0.75;;;12.30;91.20;;;;;;4900169;29;20171;-81
2022/04/16 11:18:01;;;;;;;1.48;0.60;;;12.40;88.00;;;;;;4898878;29;20215;-81
2022/04/16 11:20:27;;;;;;;1.08;0.52;;;12.50;87.00;;;;;;4898583;29;20655;-82
2022/04/16 11:22:56;;;;;;;1.75;0.80;;;12.50;86.50;;;;;;4898559;29;20269;-81
2022/04/16 11:25:23;;;;;;;3.78;0.75;;;12.60;88.70;;;;;;4900083;29;20172;-82
2022/04/16 11:36:09;;;;;;;1.02;0.50;;;12.80;80.40;;;;;;4918023;29;20202;-82
2022/04/16 11:38:37;;;;;;;0.65;0.40;;;12.80;83.20;;;;;;4916826;29;20310;-82
2022/04/16 11:41:08;;;;;;;0.80;0.47;;;12.50;76.70;;;;;;4918517;29;20167;-81
2022/04/16 11:43:38;;;;;;;0.85;0.80;;;12.70;80.60;;;;;;4916539;29;20493;-81
2022/04/16 11:46:11;;;;;;;0.88;0.47;;;12.70;78.00;;;;;;4917470;29;20379;-82
2022/04/16 11:48:42;;;;;;;0.90;0.60;;;12.80;79.00;;;;;;4918392;29;20162;-81
2022/04/16 11:51:11;;;;;;;1.90;0.80;;;12.80;76.50;;;;;;4916982;29;20178;-82
2022/04/16 11:53:50;;;;;;;1.17;0.55;;;12.70;76.80;;;;;;4918253;29;20159;-83
2022/04/16 11:56:20;;;;;;;1.90;0.75;;;12.80;80.90;;;;;;4916958;29;20205;-83
2022/04/16 11:58:51;;;;;;;1.55;0.60;;;13.10;79.40;;;;;;4918430;29;20230;-82
2022/04/16 12:01:23;;;;;;;2.30;0.70;;;13.20;79.00;;;;;;4917035;29;20226;-82
2022/04/16 12:03:53;;;;;;;1.60;0.60;;;13.30;74.00;;;;;;4918028;29;20613;-81
2022/04/16 12:06:19;;;;;;;0.93;0.60;;;13.20;75.20;;;;;;4918070;29;20174;-82
2022/04/16 12:08:48;;;;;;;0.73;0.60;;;13.20;74.80;;;;;;4916964;29;20612;-81
2022/04/16 12:11:17;;;;;;;0.70;0.50;;;13.20;72.90;;;;;;4906421;29;20190;-81
2022/04/16 12:13:43;;;;;;;0.77;0.47;;;13.20;78.90;;;;;;4899342;29;20163;-81
2022/04/16 12:16:13;;;;;;;0.88;0.65;;;13.30;75.50;;;;;;4897755;29;20239;-81
2022/04/16 12:18:41;;;;;;;1.40;0.50;;;13.30;77.10;;;;;;4899239;29;20207;-82
2022/04/16 12:21:12;;;;;;;1.08;0.60;;;13.30;75.80;;;;;;4898037;29;20619;-82
2022/04/16 12:23:38;;;;;;;2.15;0.70;;;13.50;75.30;;;;;;4898569;29;20254;-81
2022/04/16 12:26:09;;;;;;;1.67;0.77;;;13.40;74.50;;;;;;4898080;29;20186;-81
2022/04/16 12:28:37;;;;;;;1.40;0.60;;;13.30;75.30;;;;;;4899093;29;20685;-81
2022/04/16 12:31:03;;;;;;;1.02;0.45;;;13.20;74.10;;;;;;4899205;29;20190;-81
2022/04/16 12:33:29;;;;;;;0.75;0.60;;;13.30;71.10;;;;;;4897852;29;20184;-82
2022/04/16 12:35:57;;;;;;;0.98;0.70;;;13.50;74.20;;;;;;4916381;29;20199;-82
2022/04/16 12:38:25;;;;;;;1.00;0.60;;;13.50;72.70;;;;;;4917613;29;20217;-82
2022/04/16 12:40:52;;;;;;;3.60;0.60;;;13.60;72.50;;;;;;4917815;29;20167;-81
2022/04/16 12:43:18;;;;;;;0.90;0.50;;;13.70;69.80;;;;;;4916736;29;20186;-81
2022/04/16 12:45:43;;;;;;;2.95;2.03;;;13.60;72.70;;;;;;4917945;29;20162;-83
2022/04/16 12:48:09;;;;;;;1.25;0.85;;;13.60;70.60;;;;;;4914831;29;20187;-82
2022/04/16 12:50:36;;;;;;;2.22;0.70;;;13.70;72.80;;;;;;4901188;29;20234;-81
2022/04/16 12:53:04;;;;;;;2.45;0.90;;;13.80;70.60;;;;;;4896718;29;20190;-82
2022/04/16 12:55:30;;;;;;;1.33;0.70;;;13.90;67.60;;;;;;4897757;29;20615;-83
2022/04/16 12:57:57;;;;;;;1.65;0.85;;;13.80;67.80;;;;;;4897615;29;20261;-82
2022/04/16 13:00:23;;;;;;;1.98;1.02;;;13.70;66.30;;;;;;4898990;29;20176;-82
2022/04/16 13:02:49;;;;;;;1.67;0.70;;;13.70;65.00;;;;;;4898715;29;20204;-83
2022/04/16 13:05:16;;;;;;;0.60;0.50;;;13.50;67.80;;;;;;4910616;29;20190;-81
2022/04/16 13:07:46;;;;;;;1.52;0.88;;;13.50;67.30;;;;;;4916226;29;20214;-82
2022/04/16 13:10:14;;;;;;;1.33;0.70;;;13.60;68.00;;;;;;4917200;29;20175;-80
2022/04/16 13:12:40;;;;;;;0.70;0.50;;;13.60;67.30;;;;;;4917498;29;20669;-80
2022/04/16 13:15:07;;;;;;;0.77;0.65;;;13.80;68.20;;;;;;4917450;29;20629;-83
2022/04/16 13:17:34;;;;;;;2.72;0.90;;;13.80;67.90;;;;;;4915185;29;20210;-81
2022/04/16 13:20:00;;;;;;;2.17;0.80;;;13.70;65.90;;;;;;4909043;29;20530;-82
2022/04/16 13:22:29;;;;;;;1.25;0.63;;;13.90;69.30;;;;;;4908212;29;20653;-82